x

New Dungeness - 17 Nm Ne Of Port Angeles, Wa (46088) Wave Buoy

9:20am - Fri 20th Jan 2017 All times are PST. -8 hours from GMT.

  • Sig Wave height 1.3ft
  • Swell Direction
  • Peak Period 15s
  • Average Period 4s
  • Wind
    9mph, 11mph gusts
  • Sea Temp 46°f
  • 空気 Temp 45°f
  • Sea Pressure 987.5mb
  • New Dungeness - 17 Nm Ne Of Port Angeles, Wa
  • New Dungeness - 17 Nm Ne Of Port Angeles, Wa

More Historic Weather Station data

Upgrade to MSW Pro to gain access to the past 30 days of data for over 8000 Wavebouys and Weather Stations around the globe.

Join Pro

Comparision Forecast

View Surf forecast
   
Fri 01/20 9:20am 1.3ft 15s 4s 9 11 mph 987.5mb 46f 45f
8:50am 1ft 16s 4s 11 13 mph 987.6mb 46f 44f
8:20am 1ft 15s 4s 11 13 mph 987.8mb 46f 44f
7:50am 1ft 15s 3s 11 13 mph 988.1mb 46f 45f
7:20am 1.3ft 15s 3s 13
mph
988.3mb 46f 44f
6:50am 1.3ft 3s 3s 13 16 mph 988.7mb 46f 44f
6:20am 1.3ft 3s 3s 11 13 mph 989.2mb 46f 44f
5:50am 1.6ft 3s 3s 13 16 mph 989.7mb 46f 45f
5:20am 1.6ft 3s 3s 16 18 mph 989.9mb 46f 45f
4:50am 2ft 4s 3s 18 20 mph 990.2mb 46f 46f
4:20am 2ft 4s 3s 16 20 mph 990.7mb 46f 46f
3:50am 1.6ft 4s 4s 9 11 mph 991.4mb 46f 45f
3:20am 1.6ft 4s 3s 11 13 mph 991.9mb 46f 44f
2:50am 2ft 4s 4s 9 11 mph 992.4mb 46f 45f
2:20am 1.6ft 4s 3s 11 13 mph 992.5mb 46f 45f
1:50am 1.6ft 4s 3s 13 16 mph 992.7mb 46f 45f
1:20am 1.3ft 3s 3s 4 9 mph 993.3mb 46f 45f
12:50am 1.3ft 5s 4s 2 4 mph 993.6mb 45f 44f
12:20am 1ft 12s 4s 2 4 mph 994.1mb 45f 45f
Thu 01/19 11:50pm 1ft 11s 4s 2 4 mph 994.6mb 45f 45f
11:20pm 1ft 13s 4s 2
mph
995mb 46f 45f
10:50pm 1ft 3s 4s  -  2 mph 995.2mb 46f 45f
10:20pm 0.7ft  -  4s  -  mph 995.4mb 46f 45f
9:50pm 1ft 3s 4s  -  mph 995.7mb 46f 45f
9:20pm 1ft 14s 4s 4
mph
995.9mb 46f 45f
8:50pm 1ft 7s 4s  -  mph 996mb 46f 45f
8:20pm 1ft 8s 4s 4
mph
996.2mb 46f 46f
7:50pm 1ft 8s 4s 4
mph
996.1mb 46f 46f
7:20pm 1ft 10s 4s 4 9 mph 996.1mb 46f 46f
6:50pm 1ft 11s 4s 4 7 mph 996.2mb 46f 46f
6:20pm 1ft 11s 4s 4
mph
996.1mb 46f 46f
5:50pm 1ft 3s 3s 4 7 mph 996.2mb 46f 46f
5:20pm 1ft 3s 3s 9
mph
996.2mb 46f 46f
4:20pm 1.3ft 3s 3s 4
mph
995.6mb 46f 46f
3:50pm 1ft 3s 3s 4
mph
995.5mb 46f 46f
3:20pm 1ft 3s 3s 4
mph
995.6mb 46f 46f
2:50pm 1ft 3s 3s 4
mph
995.8mb 46f 46f
2:20pm 1.3ft 4s 3s 7
mph
996mb 46f 46f
1:50pm 1.3ft 11s 4s 7 9 mph 996.2mb 46f 46f
1:20pm 1ft 13s 4s 4
mph
996.4mb 46f 47f
12:50pm 1.3ft 4s 4s  -  2 mph 996.8mb 46f 48f
12:20pm 1.6ft 4s 4s  -  2 mph 996.9mb 46f 46f
11:50am 1.6ft 5s 4s 2
mph
997.1mb 46f 46f
11:20am 1.6ft 5s 4s 2 4 mph 996.9mb 46f 46f
10:50am 1.6ft 4s 4s 2 4 mph 996.9mb 46f 46f
10:20am 1.6ft 4s 4s 2 4 mph 996.7mb 46f 46f
9:50am 1.6ft 4s 4s  -  2 mph 996.7mb 46f 46f
9:20am 1.6ft 4s 4s  -  mph 996.6mb 46f 45f
8:50am 1.3ft 4s 4s 2 4 mph 996.5mb 46f 45f
8:20am 1.3ft 4s 4s 2
mph
996mb 46f 45f
7:50am 1.3ft 4s 4s 2
mph
995.8mb 46f 45f
7:20am 1ft 4s 4s 2 4 mph 995.8mb 46f 45f
6:50am 1ft 11s 4s 4
mph
995.5mb 46f 45f
6:20am 1ft 4s 4s 4 7 mph 995.4mb 46f 46f
5:50am 1ft 3s 4s 9 11 mph 995mb 46f 46f
5:20am 1.3ft 4s 4s 7
mph
995mb 46f 46f
4:50am 1.3ft 3s 3s 7
mph
994.4mb 46f 46f
4:20am 1ft 3s 3s 7 9 mph 994.2mb 46f 46f
3:50am 1ft 3s 3s 2
mph
994.2mb 46f 46f
3:20am 0.7ft  -  3s 4
mph
994mb 46f 46f
2:50am 1ft 3s 3s 9 11 mph 993.9mb 46f 47f
2:20am 1ft 3s 3s 4 7 mph 993.6mb 46f 46f
1:50am 1.3ft 4s 3s 7 9 mph 993.4mb 46f 46f
1:20am 1.3ft 4s 3s 9
mph
993.3mb 46f 46f
12:50am 1.6ft 4s 4s 11 13 mph 992.9mb 46f 46f
12:20am 1.6ft 4s 3s 9 11 mph 991.7mb 46f 46f
Wed 01/18 11:50pm 1.6ft 3s 3s 7 9 mph 990.9mb 46f 46f
11:20pm 1.3ft 3s 3s 16 20 mph 990.5mb 46f 46f
10:50pm 1.3ft 4s 3s 16 18 mph 990.1mb 46f 46f
10:20pm 1.6ft 4s 4s 13 18 mph 989.5mb 46f 47f
9:50pm 1.3ft 4s 3s 9 11 mph 989.1mb 46f 47f
9:20pm 1.3ft 4s 3s 7 9 mph 988.6mb 46f 47f
8:50pm 1.3ft 4s 3s 7
mph
988.5mb 46f 47f
8:20pm 1.3ft 3s 3s 4 7 mph 988.5mb 46f 47f
7:50pm 1.3ft 3s 3s 9 11 mph 988.4mb 46f 47f
7:20pm 1.3ft 3s 3s 11 13 mph 988.3mb 46f 48f
6:50pm 1ft 3s 3s 11 13 mph 988.2mb 46f 48f
6:20pm 1ft 3s 3s 9 11 mph 988.5mb 46f 48f
5:50pm 1.3ft 3s 3s 11 13 mph 988.7mb 46f 49f
5:20pm 1.6ft 3s 3s 7 9 mph 988.9mb 46f 48f
4:50pm 1.6ft 3s 3s  -  2 mph 989.2mb 46f 50f
4:20pm 2ft 4s 4s 2 4 mph 989.6mb 46f 49f
3:50pm 2.5ft 4s 4s 4 7 mph 989.4mb 46f 49f
3:20pm 2.5ft 4s 4s 11
mph
989.9mb 46f 49f
2:50pm 2.5ft 4s 4s 13 16 mph 989.9mb 46f 49f
2:20pm 2.5ft 4s 3s 16 22 mph 989.9mb 46f 50f
1:50pm 2.5ft 4s 3s 18 20 mph 990.2mb 46f 50f
1:20pm 2ft 4s 4s 16 20 mph 989.7mb 46f 50f
12:50pm 2.5ft 4s 4s 11 16 mph 989.7mb 46f 50f
12:20pm 3.5ft 4s 4s 18 22 mph 989.7mb 46f 50f
11:50am 4ft 5s 4s 20 22 mph 989.3mb 46f 50f
11:20am 4.5ft 5s 4s 20 27 mph 989.4mb 46f 50f
10:50am 4.5ft 5s 4s 20 27 mph 989mb 46f 50f
10:20am 4.5ft 5s 4s 22 29 mph 989.1mb 46f 50f
9:50am 4.5ft 5s 4s 29 36 mph 987.8mb 46f 49f
9:20am 4.5ft 5s 5s 31 38 mph 987.4mb 46f 48f
8:50am 5ft 5s 5s 22 31 mph 987.7mb 46f 48f
8:20am 4.5ft 5s 5s 27 34 mph 988.2mb 46f 48f
7:50am 4.5ft 5s 5s 27 34 mph 988.5mb 46f 48f
7:20am 3.5ft 5s 4s 29 36 mph 987.6mb 46f 47f
6:50am 2.5ft 5s 4s 25 31 mph 988.7mb 46f 49f
6:20am 2.5ft 5s 4s 25 27 mph 990mb 46f 49f
5:50am 2.5ft 5s 4s 20 22 mph 990.7mb 46f 49f
5:20am 2.5ft 5s 4s 11 16 mph 991.3mb 46f 49f
4:50am 3ft 5s 4s 16 18 mph 991.4mb 46f 49f
4:20am 3ft 5s 4s 20 25 mph 991.4mb 46f 49f
3:50am 3ft 5s 4s 20 25 mph 991.6mb 46f 49f
3:20am 3ft 4s 4s 18 22 mph 992.5mb 46f 49f
2:50am 3.5ft 5s 4s 18 22 mph 992.3mb 46f 49f
2:20am 3.5ft 5s 4s 20 22 mph 993mb 46f 49f
1:50am 3.5ft 5s 4s 20 25 mph 992.6mb 46f 49f
1:20am 3.5ft 5s 4s 18 25 mph 993mb 46f 49f
12:50am 4ft 5s 4s 20 27 mph 992.9mb 46f 49f
12:20am 3.5ft 4s 4s 18 22 mph 993.1mb 46f 49f
Tue 01/17 11:50pm 4ft 5s 4s 20 25 mph 993.5mb 46f 49f
11:20pm 4ft 5s 4s 27 31 mph 993.5mb 46f 49f
10:50pm 4.5ft 5s 4s 25 29 mph 993.2mb 46f 49f
10:20pm 4.5ft 5s 4s 27 31 mph 993.1mb 46f 49f
9:50pm 4.5ft 5s 4s 22 29 mph 993.8mb 46f 49f
9:20pm 5ft 6s 5s 25 29 mph 993.6mb 46f 49f
8:50pm 5ft 6s 5s 25 31 mph 993.2mb 46f 49f
8:20pm 5ft 6s 5s 25 31 mph 993mb 46f 49f
7:50pm 4.5ft 6s 5s 25 29 mph 992.9mb 46f 49f
7:20pm 5.5ft 6s 5s 27 36 mph 993.1mb 46f 49f
6:50pm 5ft 6s 5s 25 34 mph 993.3mb 46f 49f
6:20pm 5.5ft 6s 5s 25 34 mph 993mb 46f 49f
5:50pm 6ft 5s 5s 27 34 mph 993.1mb 46f 50f
4:50pm 6ft 6s 5s 31 40 mph 993.7mb 46f 49f
4:20pm 6.5ft 6s 5s 34 40 mph 994.7mb 46f 49f
3:50pm 5.5ft 6s 5s 29 36 mph 995.4mb 46f 48f
3:20pm 5ft 6s 5s 34 40 mph 995.3mb 46f 47f
2:50pm 4.5ft 5s 4s 34 40 mph 996.8mb 46f 48f
2:20pm 2.5ft 5s 4s 25 34 mph 997.2mb 46f 49f
1:50pm 2.5ft 4s 4s 13 18 mph 998.7mb 46f 49f
1:20pm 2ft 4s 4s 9 13 mph 999.5mb 46f 50f
12:50pm 2.5ft 5s 4s 2
mph
1000.9mb 46f 46f
12:20pm 3.5ft 5s 4s 7
mph
1001.6mb 46f 46f
11:50am 3.5ft 5s 4s 4
mph
1001.8mb 46f 47f
11:20am 4ft 6s 5s 2 4 mph 1002.4mb 46f 46f
10:50am 4.5ft 6s 5s 9 11 mph 1002.2mb 46f 49f
10:20am 4.5ft 6s 5s 11 16 mph 1001.8mb 46f 48f
9:50am 5ft 6s 5s 7
mph
1002mb 46f 47f
9:20am 5ft 6s 5s 18 22 mph 1001.1mb 46f 49f
8:50am 5ft 6s 5s 22 27 mph 1000.9mb 46f 49f
8:20am 4ft 5s 5s 20 25 mph 1001.5mb 46f 49f
7:50am 3.5ft 5s 4s 29 36 mph 1000.9mb 46f 49f
7:20am 2.5ft 4s 4s 27 34 mph 1001.7mb 46f 48f
6:50am 1.3ft 4s 3s 27 34 mph 1002.3mb 46f 48f
6:20am 0.7ft  -  3s 18 25 mph 1003.2mb 46f 47f
5:50am 0.7ft  -  3s 13 16 mph 1004.1mb 46f 48f
5:20am 0.7ft  -  3s 9 11 mph 1005.1mb 46f 46f
4:50am 0.7ft  -  3s 4 9 mph 1006.3mb 46f 45f
4:20am 0.7ft  -  3s 11 13 mph 1006.1mb 46f 45f
3:50am 0.7ft  -  3s 7 11 mph 1007.5mb 46f 46f
3:20am 0.7ft  -  3s 7
mph
1008.6mb 46f 46f
2:50am 1ft 3s 3s 2 4 mph 1009mb 46f 46f
2:20am 1ft 3s 3s  -  4 mph 1009.2mb 46f 46f
1:50am 1.3ft 3s 3s 2 4 mph 1009.1mb 46f 46f
1:20am 1.3ft 3s 3s 7 9 mph 1009.2mb 46f 46f
12:50am 1.3ft 3s 3s 4
mph
1009.3mb 46f 47f
12:20am 1ft 3s 3s 2 4 mph 1009.5mb 46f 47f
Mon 01/16 11:50pm 0.3ft  -  3s 2 4 mph 1009.9mb 46f 47f
11:20pm 0.7ft  -  3s 7
mph
1010.3mb 46f 46f
10:50pm 0.7ft  -  3s 4 7 mph 1010.8mb 46f 45f
10:20pm 0.7ft  -  3s 4 7 mph 1011.3mb 46f 45f
9:50pm 0.7ft  -  3s 9 11 mph 1011.8mb 46f 44f
9:20pm 0.7ft  -  3s 9
mph
1012.3mb 46f 45f
8:50pm 0.7ft  -  3s 9 11 mph 1012.7mb 46f 46f
8:20pm 0.7ft  -  3s 13
mph
1012.8mb 46f 45f
7:50pm 1ft 3s 3s 11 13 mph 1013mb 46f 45f
7:20pm 1ft 3s 3s 13
mph
1013.3mb 46f 44f
6:50pm 0.7ft  -  3s 18 20 mph 1013.8mb 46f 44f